sensor_id;sensor_type;location;lat;lon;timestamp;P1;durP1;ratioP1;P2;durP2;ratioP2
71836;SDS011;59686;51.716;7.016;2023-04-06T00:01:06;7.13;;;4.20;;
71836;SDS011;59686;51.716;7.016;2023-04-06T00:03:32;7.03;;;4.50;;
71836;SDS011;59686;51.716;7.016;2023-04-06T00:05:57;5.95;;;4.68;;
71836;SDS011;59686;51.716;7.016;2023-04-06T00:08:23;5.30;;;4.25;;
71836;SDS011;59686;51.716;7.016;2023-04-06T00:10:49;5.80;;;4.20;;
71836;SDS011;59686;51.716;7.016;2023-04-06T00:13:15;6.43;;;4.63;;
71836;SDS011;59686;51.716;7.016;2023-04-06T00:15:40;5.38;;;4.30;;
71836;SDS011;59686;51.716;7.016;2023-04-06T00:18:06;8.43;;;4.78;;
71836;SDS011;59686;51.716;7.016;2023-04-06T00:20:32;5.00;;;4.50;;
71836;SDS011;59686;51.716;7.016;2023-04-06T00:22:57;5.95;;;4.50;;
71836;SDS011;59686;51.716;7.016;2023-04-06T00:25:23;4.20;;;3.80;;
71836;SDS011;59686;51.716;7.016;2023-04-06T00:27:49;4.93;;;4.07;;
71836;SDS011;59686;51.716;7.016;2023-04-06T00:30:15;5.53;;;4.00;;
71836;SDS011;59686;51.716;7.016;2023-04-06T00:32:40;6.05;;;4.43;;
71836;SDS011;59686;51.716;7.016;2023-04-06T00:35:06;6.78;;;4.40;;
71836;SDS011;59686;51.716;7.016;2023-04-06T00:37:32;4.78;;;4.28;;
71836;SDS011;59686;51.716;7.016;2023-04-06T00:39:59;5.32;;;4.03;;
71836;SDS011;59686;51.716;7.016;2023-04-06T00:42:25;5.47;;;4.45;;
71836;SDS011;59686;51.716;7.016;2023-04-06T00:44:55;6.78;;;4.03;;
71836;SDS011;59686;51.716;7.016;2023-04-06T00:47:22;8.45;;;4.40;;
71836;SDS011;59686;51.716;7.016;2023-04-06T00:49:50;5.72;;;4.13;;
71836;SDS011;59686;51.716;7.016;2023-04-06T00:52:18;4.28;;;3.88;;
71836;SDS011;59686;51.716;7.016;2023-04-06T00:54:44;6.93;;;4.45;;
71836;SDS011;59686;51.716;7.016;2023-04-06T00:57:13;4.40;;;3.85;;
71836;SDS011;59686;51.716;7.016;2023-04-06T00:59:39;4.95;;;4.07;;
71836;SDS011;59686;51.716;7.016;2023-04-06T01:02:06;4.45;;;3.95;;
71836;SDS011;59686;51.716;7.016;2023-04-06T01:04:33;4.57;;;3.70;;
71836;SDS011;59686;51.716;7.016;2023-04-06T01:06:59;6.50;;;4.07;;
71836;SDS011;59686;51.716;7.016;2023-04-06T01:09:38;5.22;;;4.05;;
71836;SDS011;59686;51.716;7.016;2023-04-06T01:12:06;5.32;;;4.65;;
71836;SDS011;59686;51.716;7.016;2023-04-06T01:14:32;5.90;;;4.22;;
71836;SDS011;59686;51.716;7.016;2023-04-06T01:17:00;5.25;;;4.07;;
71836;SDS011;59686;51.716;7.016;2023-04-06T01:19:26;5.47;;;4.38;;
71836;SDS011;59686;51.716;7.016;2023-04-06T01:21:52;5.20;;;4.40;;
71836;SDS011;59686;51.716;7.016;2023-04-06T01:24:18;4.82;;;4.05;;
71836;SDS011;59686;51.716;7.016;2023-04-06T01:26:44;5.63;;;4.43;;
71836;SDS011;59686;51.716;7.016;2023-04-06T01:29:10;5.57;;;4.18;;
71836;SDS011;59686;51.716;7.016;2023-04-06T01:31:37;5.88;;;4.55;;
71836;SDS011;59686;51.716;7.016;2023-04-06T01:34:03;5.47;;;4.50;;
71836;SDS011;59686;51.716;7.016;2023-04-06T01:36:29;4.82;;;4.32;;
71836;SDS011;59686;51.716;7.016;2023-04-06T01:38:55;4.38;;;3.88;;
71836;SDS011;59686;51.716;7.016;2023-04-06T01:41:20;5.20;;;4.47;;
71836;SDS011;59686;51.716;7.016;2023-04-06T01:43:47;5.87;;;4.53;;
71836;SDS011;59686;51.716;7.016;2023-04-06T01:46:13;5.30;;;4.10;;
71836;SDS011;59686;51.716;7.016;2023-04-06T01:48:39;6.47;;;4.65;;
71836;SDS011;59686;51.716;7.016;2023-04-06T01:51:05;6.10;;;4.53;;
71836;SDS011;59686;51.716;7.016;2023-04-06T01:53:31;4.90;;;4.40;;
71836;SDS011;59686;51.716;7.016;2023-04-06T01:55:57;5.05;;;4.32;;
71836;SDS011;59686;51.716;7.016;2023-04-06T01:58:28;5.15;;;4.43;;
71836;SDS011;59686;51.716;7.016;2023-04-06T02:00:53;6.13;;;4.38;;
71836;SDS011;59686;51.716;7.016;2023-04-06T02:03:19;6.70;;;4.78;;
71836;SDS011;59686;51.716;7.016;2023-04-06T02:05:45;5.07;;;4.28;;
71836;SDS011;59686;51.716;7.016;2023-04-06T02:08:11;5.18;;;4.20;;
71836;SDS011;59686;51.716;7.016;2023-04-06T02:10:36;7.40;;;4.82;;
71836;SDS011;59686;51.716;7.016;2023-04-06T02:13:02;4.93;;;4.43;;
71836;SDS011;59686;51.716;7.016;2023-04-06T02:15:28;5.20;;;4.43;;
71836;SDS011;59686;51.716;7.016;2023-04-06T02:17:53;6.25;;;4.55;;
71836;SDS011;59686;51.716;7.016;2023-04-06T02:20:19;5.15;;;4.30;;
71836;SDS011;59686;51.716;7.016;2023-04-06T02:22:45;7.37;;;4.63;;
71836;SDS011;59686;51.716;7.016;2023-04-06T02:25:11;6.22;;;4.40;;
71836;SDS011;59686;51.716;7.016;2023-04-06T02:27:37;6.10;;;4.70;;
71836;SDS011;59686;51.716;7.016;2023-04-06T02:30:03;5.00;;;4.40;;
71836;SDS011;59686;51.716;7.016;2023-04-06T02:32:29;6.27;;;4.50;;
71836;SDS011;59686;51.716;7.016;2023-04-06T02:34:55;5.50;;;4.40;;
71836;SDS011;59686;51.716;7.016;2023-04-06T02:37:21;7.73;;;4.40;;
71836;SDS011;59686;51.716;7.016;2023-04-06T02:39:48;5.68;;;4.50;;
71836;SDS011;59686;51.716;7.016;2023-04-06T02:42:13;6.93;;;4.50;;
71836;SDS011;59686;51.716;7.016;2023-04-06T02:44:40;4.73;;;4.13;;
71836;SDS011;59686;51.716;7.016;2023-04-06T02:47:07;4.85;;;4.22;;
71836;SDS011;59686;51.716;7.016;2023-04-06T02:49:32;6.00;;;4.60;;
71836;SDS011;59686;51.716;7.016;2023-04-06T02:51:58;5.97;;;4.53;;
71836;SDS011;59686;51.716;7.016;2023-04-06T02:54:25;6.03;;;4.20;;
71836;SDS011;59686;51.716;7.016;2023-04-06T02:56:50;5.53;;;4.50;;
71836;SDS011;59686;51.716;7.016;2023-04-06T02:59:16;6.00;;;4.83;;
71836;SDS011;59686;51.716;7.016;2023-04-06T03:01:42;6.07;;;4.77;;
71836;SDS011;59686;51.716;7.016;2023-04-06T03:04:07;6.37;;;4.60;;
71836;SDS011;59686;51.716;7.016;2023-04-06T03:06:33;5.53;;;4.30;;
71836;SDS011;59686;51.716;7.016;2023-04-06T03:08:59;6.63;;;4.53;;
71836;SDS011;59686;51.716;7.016;2023-04-06T03:11:25;6.00;;;4.60;;
71836;SDS011;59686;51.716;7.016;2023-04-06T03:13:51;6.53;;;4.73;;
71836;SDS011;59686;51.716;7.016;2023-04-06T03:16:17;7.00;;;4.80;;
71836;SDS011;59686;51.716;7.016;2023-04-06T03:18:43;5.33;;;4.27;;
71836;SDS011;59686;51.716;7.016;2023-04-06T03:21:10;6.60;;;4.80;;
71836;SDS011;59686;51.716;7.016;2023-04-06T03:23:36;7.40;;;5.03;;
71836;SDS011;59686;51.716;7.016;2023-04-06T03:26:02;6.17;;;4.53;;
71836;SDS011;59686;51.716;7.016;2023-04-06T03:28:29;5.07;;;4.17;;
71836;SDS011;59686;51.716;7.016;2023-04-06T03:30:55;5.53;;;4.57;;
71836;SDS011;59686;51.716;7.016;2023-04-06T03:33:21;6.43;;;4.93;;
71836;SDS011;59686;51.716;7.016;2023-04-06T03:35:46;6.67;;;5.13;;
71836;SDS011;59686;51.716;7.016;2023-04-06T03:38:12;6.43;;;5.10;;
71836;SDS011;59686;51.716;7.016;2023-04-06T03:40:38;6.60;;;4.90;;
71836;SDS011;59686;51.716;7.016;2023-04-06T03:43:05;6.20;;;5.00;;
71836;SDS011;59686;51.716;7.016;2023-04-06T03:45:31;7.93;;;4.90;;
71836;SDS011;59686;51.716;7.016;2023-04-06T03:47:57;6.83;;;5.00;;
71836;SDS011;59686;51.716;7.016;2023-04-06T03:50:22;6.67;;;5.20;;
71836;SDS011;59686;51.716;7.016;2023-04-06T03:52:48;7.30;;;4.97;;
71836;SDS011;59686;51.716;7.016;2023-04-06T03:55:14;5.50;;;4.80;;
71836;SDS011;59686;51.716;7.016;2023-04-06T03:57:40;8.13;;;5.57;;
71836;SDS011;59686;51.716;7.016;2023-04-06T04:00:06;6.10;;;4.93;;
71836;SDS011;59686;51.716;7.016;2023-04-06T04:02:32;6.63;;;5.43;;
71836;SDS011;59686;51.716;7.016;2023-04-06T04:04:58;6.03;;;5.23;;
71836;SDS011;59686;51.716;7.016;2023-04-06T04:07:24;6.10;;;5.33;;
71836;SDS011;59686;51.716;7.016;2023-04-06T04:09:50;6.23;;;5.60;;
71836;SDS011;59686;51.716;7.016;2023-04-06T04:12:15;7.03;;;5.43;;
71836;SDS011;59686;51.716;7.016;2023-04-06T04:14:41;6.30;;;5.40;;
71836;SDS011;59686;51.716;7.016;2023-04-06T04:17:08;8.00;;;5.37;;
71836;SDS011;59686;51.716;7.016;2023-04-06T04:22:04;7.57;;;5.73;;
71836;SDS011;59686;51.716;7.016;2023-04-06T04:24:31;7.90;;;5.83;;
71836;SDS011;59686;51.716;7.016;2023-04-06T04:26:57;6.67;;;5.30;;
71836;SDS011;59686;51.716;7.016;2023-04-06T04:29:22;8.50;;;6.00;;
71836;SDS011;59686;51.716;7.016;2023-04-06T04:31:48;7.37;;;5.67;;
71836;SDS011;59686;51.716;7.016;2023-04-06T04:34:15;6.27;;;5.20;;
71836;SDS011;59686;51.716;7.016;2023-04-06T04:36:41;7.13;;;5.43;;
71836;SDS011;59686;51.716;7.016;2023-04-06T04:39:10;7.73;;;5.17;;
71836;SDS011;59686;51.716;7.016;2023-04-06T04:41:35;7.73;;;5.67;;
71836;SDS011;59686;51.716;7.016;2023-04-06T04:44:01;7.00;;;5.60;;
71836;SDS011;59686;51.716;7.016;2023-04-06T04:46:27;7.60;;;5.70;;
71836;SDS011;59686;51.716;7.016;2023-04-06T04:48:53;7.00;;;6.00;;
71836;SDS011;59686;51.716;7.016;2023-04-06T04:51:18;9.37;;;5.67;;
71836;SDS011;59686;51.716;7.016;2023-04-06T04:53:47;6.30;;;5.50;;
71836;SDS011;59686;51.716;7.016;2023-04-06T04:56:12;7.67;;;5.90;;
71836;SDS011;59686;51.716;7.016;2023-04-06T04:58:38;7.13;;;6.03;;
71836;SDS011;59686;51.716;7.016;2023-04-06T05:01:04;6.13;;;5.30;;
71836;SDS011;59686;51.716;7.016;2023-04-06T05:03:30;8.10;;;6.43;;
71836;SDS011;59686;51.716;7.016;2023-04-06T05:05:57;7.13;;;5.67;;
71836;SDS011;59686;51.716;7.016;2023-04-06T05:08:23;6.60;;;5.87;;
71836;SDS011;59686;51.716;7.016;2023-04-06T05:10:48;9.67;;;6.57;;
71836;SDS011;59686;51.716;7.016;2023-04-06T05:15:44;6.90;;;6.13;;
71836;SDS011;59686;51.716;7.016;2023-04-06T05:18:09;8.57;;;6.50;;
71836;SDS011;59686;51.716;7.016;2023-04-06T05:20:36;9.33;;;6.27;;
71836;SDS011;59686;51.716;7.016;2023-04-06T05:23:08;8.30;;;6.20;;
71836;SDS011;59686;51.716;7.016;2023-04-06T05:25:33;7.57;;;5.77;;
71836;SDS011;59686;51.716;7.016;2023-04-06T05:27:59;7.27;;;6.00;;
71836;SDS011;59686;51.716;7.016;2023-04-06T05:30:25;8.10;;;6.37;;
71836;SDS011;59686;51.716;7.016;2023-04-06T05:32:57;9.13;;;6.60;;
71836;SDS011;59686;51.716;7.016;2023-04-06T05:35:24;9.00;;;6.77;;
71836;SDS011;59686;51.716;7.016;2023-04-06T05:37:50;7.40;;;6.20;;
71836;SDS011;59686;51.716;7.016;2023-04-06T05:40:15;9.77;;;6.53;;
71836;SDS011;59686;51.716;7.016;2023-04-06T05:42:42;7.77;;;6.87;;
71836;SDS011;59686;51.716;7.016;2023-04-06T05:45:08;8.77;;;6.73;;
71836;SDS011;59686;51.716;7.016;2023-04-06T05:47:37;10.30;;;6.53;;
71836;SDS011;59686;51.716;7.016;2023-04-06T05:50:03;7.60;;;6.80;;
71836;SDS011;59686;51.716;7.016;2023-04-06T05:52:29;11.13;;;7.07;;
71836;SDS011;59686;51.716;7.016;2023-04-06T05:54:54;11.13;;;6.93;;
71836;SDS011;59686;51.716;7.016;2023-04-06T05:57:20;9.83;;;7.03;;
71836;SDS011;59686;51.716;7.016;2023-04-06T05:59:47;7.47;;;6.50;;
71836;SDS011;59686;51.716;7.016;2023-04-06T06:02:12;9.63;;;7.30;;
71836;SDS011;59686;51.716;7.016;2023-04-06T06:04:39;9.20;;;7.00;;
71836;SDS011;59686;51.716;7.016;2023-04-06T06:07:04;7.20;;;6.43;;
71836;SDS011;59686;51.716;7.016;2023-04-06T06:09:31;7.60;;;6.47;;
71836;SDS011;59686;51.716;7.016;2023-04-06T06:11:57;8.07;;;7.07;;
71836;SDS011;59686;51.716;7.016;2023-04-06T06:14:22;9.57;;;7.37;;
71836;SDS011;59686;51.716;7.016;2023-04-06T06:16:48;9.60;;;6.60;;
71836;SDS011;59686;51.716;7.016;2023-04-06T06:19:14;9.07;;;7.23;;
71836;SDS011;59686;51.716;7.016;2023-04-06T06:21:40;10.40;;;7.00;;
71836;SDS011;59686;51.716;7.016;2023-04-06T06:24:06;9.90;;;7.47;;
71836;SDS011;59686;51.716;7.016;2023-04-06T06:26:39;7.93;;;6.93;;
71836;SDS011;59686;51.716;7.016;2023-04-06T06:29:06;9.83;;;6.60;;
71836;SDS011;59686;51.716;7.016;2023-04-06T06:31:32;8.97;;;6.77;;
71836;SDS011;59686;51.716;7.016;2023-04-06T06:36:29;10.10;;;7.27;;
71836;SDS011;59686;51.716;7.016;2023-04-06T06:38:55;8.37;;;6.93;;
71836;SDS011;59686;51.716;7.016;2023-04-06T06:41:21;8.27;;;7.13;;
71836;SDS011;59686;51.716;7.016;2023-04-06T06:43:47;9.20;;;7.07;;
71836;SDS011;59686;51.716;7.016;2023-04-06T06:46:13;9.67;;;6.83;;
71836;SDS011;59686;51.716;7.016;2023-04-06T06:48:38;9.93;;;7.60;;
71836;SDS011;59686;51.716;7.016;2023-04-06T06:51:05;9.20;;;6.93;;
71836;SDS011;59686;51.716;7.016;2023-04-06T06:53:31;10.23;;;7.50;;
71836;SDS011;59686;51.716;7.016;2023-04-06T06:55:57;10.57;;;7.70;;
71836;SDS011;59686;51.716;7.016;2023-04-06T06:58:23;9.57;;;7.50;;
71836;SDS011;59686;51.716;7.016;2023-04-06T07:00:48;9.67;;;7.13;;
71836;SDS011;59686;51.716;7.016;2023-04-06T07:05:55;10.60;;;7.57;;
71836;SDS011;59686;51.716;7.016;2023-04-06T07:08:21;9.43;;;7.47;;
71836;SDS011;59686;51.716;7.016;2023-04-06T07:10:49;9.73;;;7.00;;
71836;SDS011;59686;51.716;7.016;2023-04-06T07:13:19;8.80;;;7.50;;
71836;SDS011;59686;51.716;7.016;2023-04-06T07:15:51;9.80;;;7.47;;
71836;SDS011;59686;51.716;7.016;2023-04-06T07:18:18;10.53;;;7.00;;
71836;SDS011;59686;51.716;7.016;2023-04-06T07:20:44;10.50;;;7.40;;
71836;SDS011;59686;51.716;7.016;2023-04-06T07:23:16;8.80;;;7.07;;
71836;SDS011;59686;51.716;7.016;2023-04-06T07:25:56;9.17;;;7.00;;
71836;SDS011;59686;51.716;7.016;2023-04-06T07:28:22;10.90;;;7.10;;
71836;SDS011;59686;51.716;7.016;2023-04-06T07:30:47;8.33;;;6.50;;
71836;SDS011;59686;51.716;7.016;2023-04-06T07:33:13;9.90;;;7.40;;
71836;SDS011;59686;51.716;7.016;2023-04-06T07:35:39;8.23;;;6.50;;
71836;SDS011;59686;51.716;7.016;2023-04-06T07:38:05;9.13;;;6.73;;
71836;SDS011;59686;51.716;7.016;2023-04-06T07:40:30;8.80;;;7.10;;
71836;SDS011;59686;51.716;7.016;2023-04-06T07:42:59;9.83;;;7.00;;
71836;SDS011;59686;51.716;7.016;2023-04-06T07:45:25;10.60;;;7.20;;
71836;SDS011;59686;51.716;7.016;2023-04-06T07:47:50;9.63;;;7.30;;
71836;SDS011;59686;51.716;7.016;2023-04-06T07:50:31;8.80;;;7.13;;
71836;SDS011;59686;51.716;7.016;2023-04-06T07:52:57;9.03;;;7.30;;
71836;SDS011;59686;51.716;7.016;2023-04-06T07:55:27;10.50;;;6.93;;
71836;SDS011;59686;51.716;7.016;2023-04-06T07:57:52;9.67;;;6.63;;
71836;SDS011;59686;51.716;7.016;2023-04-06T08:00:18;7.70;;;6.77;;
71836;SDS011;59686;51.716;7.016;2023-04-06T08:02:44;8.53;;;7.03;;
71836;SDS011;59686;51.716;7.016;2023-04-06T08:05:10;8.80;;;6.53;;
71836;SDS011;59686;51.716;7.016;2023-04-06T08:07:36;7.73;;;6.40;;
71836;SDS011;59686;51.716;7.016;2023-04-06T08:10:02;11.67;;;7.90;;
71836;SDS011;59686;51.716;7.016;2023-04-06T08:12:28;9.33;;;7.13;;
71836;SDS011;59686;51.716;7.016;2023-04-06T08:14:54;10.03;;;6.93;;
71836;SDS011;59686;51.716;7.016;2023-04-06T08:17:20;9.77;;;7.00;;
71836;SDS011;59686;51.716;7.016;2023-04-06T08:19:45;9.97;;;7.33;;
71836;SDS011;59686;51.716;7.016;2023-04-06T08:22:11;9.00;;;6.70;;
71836;SDS011;59686;51.716;7.016;2023-04-06T08:24:39;10.87;;;7.37;;
71836;SDS011;59686;51.716;7.016;2023-04-06T08:27:05;10.23;;;6.77;;
71836;SDS011;59686;51.716;7.016;2023-04-06T08:29:33;8.60;;;6.43;;
71836;SDS011;59686;51.716;7.016;2023-04-06T08:31:58;12.00;;;7.53;;
71836;SDS011;59686;51.716;7.016;2023-04-06T08:34:24;11.03;;;7.40;;
71836;SDS011;59686;51.716;7.016;2023-04-06T08:36:50;9.73;;;7.10;;
71836;SDS011;59686;51.716;7.016;2023-04-06T08:39:19;10.37;;;7.37;;
71836;SDS011;59686;51.716;7.016;2023-04-06T08:44:26;8.00;;;6.70;;
71836;SDS011;59686;51.716;7.016;2023-04-06T08:46:52;9.70;;;7.53;;
71836;SDS011;59686;51.716;7.016;2023-04-06T08:49:18;10.93;;;8.07;;
71836;SDS011;59686;51.716;7.016;2023-04-06T08:51:44;9.40;;;7.00;;
71836;SDS011;59686;51.716;7.016;2023-04-06T08:54:16;10.37;;;7.07;;
71836;SDS011;59686;51.716;7.016;2023-04-06T08:56:52;12.70;;;7.60;;
71836;SDS011;59686;51.716;7.016;2023-04-06T08:59:18;8.33;;;6.83;;
71836;SDS011;59686;51.716;7.016;2023-04-06T09:01:44;12.53;;;7.60;;
71836;SDS011;59686;51.716;7.016;2023-04-06T09:04:12;10.50;;;7.87;;
71836;SDS011;59686;51.716;7.016;2023-04-06T09:06:38;10.40;;;6.90;;
71836;SDS011;59686;51.716;7.016;2023-04-06T09:09:05;10.67;;;7.40;;
71836;SDS011;59686;51.716;7.016;2023-04-06T09:11:47;11.60;;;8.40;;
71836;SDS011;59686;51.716;7.016;2023-04-06T09:14:15;10.80;;;7.80;;
71836;SDS011;59686;51.716;7.016;2023-04-06T09:19:21;10.80;;;7.77;;
71836;SDS011;59686;51.716;7.016;2023-04-06T09:21:47;14.10;;;8.20;;
71836;SDS011;59686;51.716;7.016;2023-04-06T09:24:15;11.30;;;7.60;;
71836;SDS011;59686;51.716;7.016;2023-04-06T09:29:22;15.23;;;9.53;;
71836;SDS011;59686;51.716;7.016;2023-04-06T09:31:49;11.77;;;8.90;;
71836;SDS011;59686;51.716;7.016;2023-04-06T09:34:22;11.03;;;8.83;;
71836;SDS011;59686;51.716;7.016;2023-04-06T09:36:48;12.70;;;8.77;;
71836;SDS011;59686;51.716;7.016;2023-04-06T09:39:14;11.87;;;9.20;;
71836;SDS011;59686;51.716;7.016;2023-04-06T09:41:49;11.93;;;8.93;;
71836;SDS011;59686;51.716;7.016;2023-04-06T09:44:25;12.53;;;9.20;;
71836;SDS011;59686;51.716;7.016;2023-04-06T09:46:51;13.43;;;9.63;;
71836;SDS011;59686;51.716;7.016;2023-04-06T09:49:22;15.30;;;9.70;;
71836;SDS011;59686;51.716;7.016;2023-04-06T09:52:11;15.13;;;9.63;;
71836;SDS011;59686;51.716;7.016;2023-04-06T09:55:02;12.07;;;9.07;;
71836;SDS011;59686;51.716;7.016;2023-04-06T09:57:55;12.93;;;9.70;;
71836;SDS011;59686;51.716;7.016;2023-04-06T10:01:02;14.00;;;10.00;;
71836;SDS011;59686;51.716;7.016;2023-04-06T10:04:02;14.53;;;9.90;;
71836;SDS011;59686;51.716;7.016;2023-04-06T10:07:04;14.30;;;9.23;;
71836;SDS011;59686;51.716;7.016;2023-04-06T10:09:52;14.07;;;10.20;;
71836;SDS011;59686;51.716;7.016;2023-04-06T10:12:40;12.77;;;9.50;;
71836;SDS011;59686;51.716;7.016;2023-04-06T10:15:27;12.53;;;8.70;;
71836;SDS011;59686;51.716;7.016;2023-04-06T10:18:16;14.13;;;9.37;;
71836;SDS011;59686;51.716;7.016;2023-04-06T10:21:09;13.73;;;9.70;;
71836;SDS011;59686;51.716;7.016;2023-04-06T10:23:59;11.53;;;9.17;;
71836;SDS011;59686;51.716;7.016;2023-04-06T10:26:56;13.63;;;9.73;;
71836;SDS011;59686;51.716;7.016;2023-04-06T10:29:47;14.50;;;9.83;;
71836;SDS011;59686;51.716;7.016;2023-04-06T10:32:36;13.93;;;9.87;;
71836;SDS011;59686;51.716;7.016;2023-04-06T10:35:23;13.37;;;9.30;;
71836;SDS011;59686;51.716;7.016;2023-04-06T10:38:09;15.53;;;10.30;;
71836;SDS011;59686;51.716;7.016;2023-04-06T10:41:03;15.23;;;10.47;;
71836;SDS011;59686;51.716;7.016;2023-04-06T10:43:57;16.73;;;10.70;;
71836;SDS011;59686;51.716;7.016;2023-04-06T10:46:52;14.03;;;9.90;;
71836;SDS011;59686;51.716;7.016;2023-04-06T10:49:41;17.30;;;10.30;;
71836;SDS011;59686;51.716;7.016;2023-04-06T10:52:26;16.83;;;10.77;;
71836;SDS011;59686;51.716;7.016;2023-04-06T10:55:13;14.37;;;10.20;;
71836;SDS011;59686;51.716;7.016;2023-04-06T11:00:51;14.93;;;10.17;;
71836;SDS011;59686;51.716;7.016;2023-04-06T11:03:47;15.60;;;10.70;;
71836;SDS011;59686;51.716;7.016;2023-04-06T11:06:34;16.20;;;10.87;;
71836;SDS011;59686;51.716;7.016;2023-04-06T11:09:28;16.57;;;11.70;;
71836;SDS011;59686;51.716;7.016;2023-04-06T11:12:26;14.57;;;10.67;;
71836;SDS011;59686;51.716;7.016;2023-04-06T11:15:14;15.87;;;11.63;;
71836;SDS011;59686;51.716;7.016;2023-04-06T11:18:03;16.03;;;11.73;;
71836;SDS011;59686;51.716;7.016;2023-04-06T11:20:50;17.03;;;11.37;;
71836;SDS011;59686;51.716;7.016;2023-04-06T11:23:36;15.93;;;10.67;;
71836;SDS011;59686;51.716;7.016;2023-04-06T11:26:27;14.43;;;11.07;;
71836;SDS011;59686;51.716;7.016;2023-04-06T11:29:22;14.40;;;10.73;;
71836;SDS011;59686;51.716;7.016;2023-04-06T11:32:11;16.40;;;11.40;;
71836;SDS011;59686;51.716;7.016;2023-04-06T11:35:06;17.93;;;12.00;;
71836;SDS011;59686;51.716;7.016;2023-04-06T11:40:45;16.60;;;11.70;;
71836;SDS011;59686;51.716;7.016;2023-04-06T11:43:31;17.03;;;12.40;;
71836;SDS011;59686;51.716;7.016;2023-04-06T11:46:17;17.13;;;11.80;;
71836;SDS011;59686;51.716;7.016;2023-04-06T11:49:05;17.77;;;12.27;;
71836;SDS011;59686;51.716;7.016;2023-04-06T11:51:51;16.47;;;11.77;;
71836;SDS011;59686;51.716;7.016;2023-04-06T11:54:43;18.13;;;13.00;;
71836;SDS011;59686;51.716;7.016;2023-04-06T11:57:29;16.33;;;11.60;;
71836;SDS011;59686;51.716;7.016;2023-04-06T12:00:15;17.40;;;12.03;;
71836;SDS011;59686;51.716;7.016;2023-04-06T12:03:04;17.23;;;11.63;;
71836;SDS011;59686;51.716;7.016;2023-04-06T12:05:50;19.20;;;11.93;;
71836;SDS011;59686;51.716;7.016;2023-04-06T12:08:36;17.83;;;12.53;;
71836;SDS011;59686;51.716;7.016;2023-04-06T12:11:23;20.00;;;12.57;;
71836;SDS011;59686;51.716;7.016;2023-04-06T12:14:09;19.30;;;12.23;;
71836;SDS011;59686;51.716;7.016;2023-04-06T12:16:57;17.07;;;11.33;;
71836;SDS011;59686;51.716;7.016;2023-04-06T12:19:54;17.73;;;11.23;;
71836;SDS011;59686;51.716;7.016;2023-04-06T12:22:41;20.47;;;11.63;;
71836;SDS011;59686;51.716;7.016;2023-04-06T12:25:27;18.97;;;12.40;;
71836;SDS011;59686;51.716;7.016;2023-04-06T12:28:13;17.10;;;11.10;;
71836;SDS011;59686;51.716;7.016;2023-04-06T12:31:00;17.53;;;11.40;;
71836;SDS011;59686;51.716;7.016;2023-04-06T12:33:50;18.80;;;11.30;;
71836;SDS011;59686;51.716;7.016;2023-04-06T12:36:37;16.27;;;9.70;;
71836;SDS011;59686;51.716;7.016;2023-04-06T12:39:24;18.53;;;10.67;;
71836;SDS011;59686;51.716;7.016;2023-04-06T12:42:10;14.93;;;10.43;;
71836;SDS011;59686;51.716;7.016;2023-04-06T12:44:57;17.03;;;10.43;;
71836;SDS011;59686;51.716;7.016;2023-04-06T12:47:43;17.80;;;10.73;;
71836;SDS011;59686;51.716;7.016;2023-04-06T12:50:29;19.57;;;10.77;;
71836;SDS011;59686;51.716;7.016;2023-04-06T12:53:15;18.03;;;10.37;;
71836;SDS011;59686;51.716;7.016;2023-04-06T12:56:15;14.77;;;10.53;;
71836;SDS011;59686;51.716;7.016;2023-04-06T12:59:02;17.17;;;10.47;;
71836;SDS011;59686;51.716;7.016;2023-04-06T13:01:56;18.30;;;11.53;;
71836;SDS011;59686;51.716;7.016;2023-04-06T13:04:42;18.27;;;10.77;;
71836;SDS011;59686;51.716;7.016;2023-04-06T13:07:28;19.33;;;10.83;;
71836;SDS011;59686;51.716;7.016;2023-04-06T13:10:14;16.70;;;10.47;;
71836;SDS011;59686;51.716;7.016;2023-04-06T13:13:01;15.30;;;10.47;;
71836;SDS011;59686;51.716;7.016;2023-04-06T13:15:47;18.90;;;11.20;;
71836;SDS011;59686;51.716;7.016;2023-04-06T13:18:33;17.47;;;11.07;;
71836;SDS011;59686;51.716;7.016;2023-04-06T13:21:20;17.13;;;10.60;;
71836;SDS011;59686;51.716;7.016;2023-04-06T13:24:06;17.07;;;10.83;;
71836;SDS011;59686;51.716;7.016;2023-04-06T13:26:54;16.57;;;10.30;;
71836;SDS011;59686;51.716;7.016;2023-04-06T13:29:41;14.83;;;10.00;;
71836;SDS011;59686;51.716;7.016;2023-04-06T13:32:27;16.17;;;10.77;;
71836;SDS011;59686;51.716;7.016;2023-04-06T13:35:13;17.87;;;11.00;;
71836;SDS011;59686;51.716;7.016;2023-04-06T13:37:59;17.40;;;10.73;;
71836;SDS011;59686;51.716;7.016;2023-04-06T13:40:45;17.23;;;10.27;;
71836;SDS011;59686;51.716;7.016;2023-04-06T13:43:32;17.00;;;11.07;;
71836;SDS011;59686;51.716;7.016;2023-04-06T13:46:18;15.10;;;10.43;;
71836;SDS011;59686;51.716;7.016;2023-04-06T13:49:05;17.70;;;10.63;;
71836;SDS011;59686;51.716;7.016;2023-04-06T13:51:53;16.17;;;10.17;;
71836;SDS011;59686;51.716;7.016;2023-04-06T13:54:39;16.03;;;10.50;;
71836;SDS011;59686;51.716;7.016;2023-04-06T13:57:31;14.60;;;9.73;;
71836;SDS011;59686;51.716;7.016;2023-04-06T13:59:57;15.70;;;10.13;;
71836;SDS011;59686;51.716;7.016;2023-04-06T14:02:22;14.50;;;10.07;;
71836;SDS011;59686;51.716;7.016;2023-04-06T14:04:52;14.90;;;9.40;;
71836;SDS011;59686;51.716;7.016;2023-04-06T14:07:20;14.10;;;9.63;;
71836;SDS011;59686;51.716;7.016;2023-04-06T14:09:46;12.73;;;8.80;;
71836;SDS011;59686;51.716;7.016;2023-04-06T14:12:12;14.60;;;9.17;;
71836;SDS011;59686;51.716;7.016;2023-04-06T14:14:38;12.43;;;8.60;;
71836;SDS011;59686;51.716;7.016;2023-04-06T14:17:03;13.20;;;8.33;;
71836;SDS011;59686;51.716;7.016;2023-04-06T14:19:29;10.27;;;7.73;;
71836;SDS011;59686;51.716;7.016;2023-04-06T14:24:25;12.50;;;7.53;;
71836;SDS011;59686;51.716;7.016;2023-04-06T14:27:08;12.67;;;8.90;;
71836;SDS011;59686;51.716;7.016;2023-04-06T14:29:34;11.43;;;7.93;;
71836;SDS011;59686;51.716;7.016;2023-04-06T14:32:05;11.00;;;7.83;;
71836;SDS011;59686;51.716;7.016;2023-04-06T14:34:38;13.97;;;8.03;;
71836;SDS011;59686;51.716;7.016;2023-04-06T14:37:08;13.13;;;8.13;;
71836;SDS011;59686;51.716;7.016;2023-04-06T14:39:33;11.07;;;7.90;;
71836;SDS011;59686;51.716;7.016;2023-04-06T14:42:09;10.47;;;7.97;;
71836;SDS011;59686;51.716;7.016;2023-04-06T14:44:35;11.63;;;7.83;;
71836;SDS011;59686;51.716;7.016;2023-04-06T14:47:02;11.23;;;7.30;;
71836;SDS011;59686;51.716;7.016;2023-04-06T14:49:29;10.67;;;7.50;;
71836;SDS011;59686;51.716;7.016;2023-04-06T14:51:59;9.43;;;7.80;;
71836;SDS011;59686;51.716;7.016;2023-04-06T14:54:25;11.00;;;7.33;;
71836;SDS011;59686;51.716;7.016;2023-04-06T14:56:50;9.63;;;7.23;;
71836;SDS011;59686;51.716;7.016;2023-04-06T14:59:16;11.17;;;7.53;;
71836;SDS011;59686;51.716;7.016;2023-04-06T15:01:46;10.70;;;7.30;;
71836;SDS011;59686;51.716;7.016;2023-04-06T15:04:15;9.13;;;6.87;;
71836;SDS011;59686;51.716;7.016;2023-04-06T15:06:41;9.57;;;7.50;;
71836;SDS011;59686;51.716;7.016;2023-04-06T15:09:08;10.03;;;7.40;;
71836;SDS011;59686;51.716;7.016;2023-04-06T15:11:34;9.47;;;6.93;;
71836;SDS011;59686;51.716;7.016;2023-04-06T15:14:00;10.40;;;7.20;;
71836;SDS011;59686;51.716;7.016;2023-04-06T15:16:26;10.30;;;7.23;;
71836;SDS011;59686;51.716;7.016;2023-04-06T15:18:57;14.33;;;7.60;;
71836;SDS011;59686;51.716;7.016;2023-04-06T15:21:23;9.80;;;7.10;;
71836;SDS011;59686;51.716;7.016;2023-04-06T15:23:50;8.53;;;7.10;;
71836;SDS011;59686;51.716;7.016;2023-04-06T15:26:16;10.63;;;7.70;;
71836;SDS011;59686;51.716;7.016;2023-04-06T15:28:42;8.47;;;7.13;;
71836;SDS011;59686;51.716;7.016;2023-04-06T15:31:26;10.03;;;6.97;;
71836;SDS011;59686;51.716;7.016;2023-04-06T15:33:53;8.83;;;6.77;;